sensor_id;sensor_type;location;lat;lon;timestamp;P1;durP1;ratioP1;P2;durP2;ratioP2
24619;SDS011;12763;55.802;37.404;2022-08-03T00:00:03;20.67;;;9.48;;
24619;SDS011;12763;55.802;37.404;2022-08-03T00:02:38;18.42;;;8.70;;
24619;SDS011;12763;55.802;37.404;2022-08-03T00:05:04;23.10;;;7.00;;
24619;SDS011;12763;55.802;37.404;2022-08-03T00:07:33;20.63;;;8.73;;
24619;SDS011;12763;55.802;37.404;2022-08-03T00:09:59;20.20;;;8.57;;
24619;SDS011;12763;55.802;37.404;2022-08-03T00:12:25;16.50;;;8.02;;
24619;SDS011;12763;55.802;37.404;2022-08-03T00:14:52;23.27;;;8.63;;
24619;SDS011;12763;55.802;37.404;2022-08-03T00:17:18;19.77;;;7.75;;
24619;SDS011;12763;55.802;37.404;2022-08-03T00:19:44;18.15;;;8.45;;
24619;SDS011;12763;55.802;37.404;2022-08-03T00:22:11;18.30;;;8.82;;
24619;SDS011;12763;55.802;37.404;2022-08-03T00:24:37;16.17;;;8.45;;
24619;SDS011;12763;55.802;37.404;2022-08-03T00:27:03;23.42;;;9.52;;
24619;SDS011;12763;55.802;37.404;2022-08-03T00:29:29;18.73;;;8.02;;
24619;SDS011;12763;55.802;37.404;2022-08-03T00:31:55;21.77;;;8.55;;
24619;SDS011;12763;55.802;37.404;2022-08-03T00:34:21;17.02;;;8.18;;
24619;SDS011;12763;55.802;37.404;2022-08-03T00:36:47;18.85;;;8.98;;
24619;SDS011;12763;55.802;37.404;2022-08-03T00:39:13;17.13;;;8.20;;
24619;SDS011;12763;55.802;37.404;2022-08-03T00:41:39;13.25;;;7.65;;
24619;SDS011;12763;55.802;37.404;2022-08-03T00:44:05;17.33;;;8.82;;
24619;SDS011;12763;55.802;37.404;2022-08-03T00:46:31;18.98;;;7.78;;
24619;SDS011;12763;55.802;37.404;2022-08-03T00:48:57;20.88;;;9.60;;
24619;SDS011;12763;55.802;37.404;2022-08-03T00:51:24;18.10;;;8.57;;
24619;SDS011;12763;55.802;37.404;2022-08-03T00:53:50;20.73;;;8.85;;
24619;SDS011;12763;55.802;37.404;2022-08-03T00:56:16;15.57;;;8.75;;
24619;SDS011;12763;55.802;37.404;2022-08-03T00:58:43;17.05;;;8.48;;
24619;SDS011;12763;55.802;37.404;2022-08-03T01:01:10;20.45;;;8.80;;
24619;SDS011;12763;55.802;37.404;2022-08-03T01:03:37;18.27;;;8.55;;
24619;SDS011;12763;55.802;37.404;2022-08-03T01:06:06;15.70;;;8.45;;
24619;SDS011;12763;55.802;37.404;2022-08-03T01:08:51;19.13;;;8.70;;
24619;SDS011;12763;55.802;37.404;2022-08-03T01:19:40;21.23;;;9.40;;
24619;SDS011;12763;55.802;37.404;2022-08-03T01:22:36;26.50;;;9.57;;
24619;SDS011;12763;55.802;37.404;2022-08-03T01:28:28;20.80;;;8.85;;
24619;SDS011;12763;55.802;37.404;2022-08-03T01:31:09;19.30;;;9.25;;
24619;SDS011;12763;55.802;37.404;2022-08-03T01:33:45;17.80;;;9.00;;
24619;SDS011;12763;55.802;37.404;2022-08-03T01:36:23;21.42;;;8.75;;
24619;SDS011;12763;55.802;37.404;2022-08-03T01:38:59;17.13;;;8.60;;
24619;SDS011;12763;55.802;37.404;2022-08-03T01:41:29;22.23;;;9.70;;
24619;SDS011;12763;55.802;37.404;2022-08-03T01:43:59;26.42;;;9.38;;
24619;SDS011;12763;55.802;37.404;2022-08-03T01:46:27;17.08;;;8.88;;
24619;SDS011;12763;55.802;37.404;2022-08-03T01:48:58;24.15;;;9.13;;
24619;SDS011;12763;55.802;37.404;2022-08-03T01:51:25;18.65;;;8.52;;
24619;SDS011;12763;55.802;37.404;2022-08-03T01:53:53;19.02;;;9.20;;
24619;SDS011;12763;55.802;37.404;2022-08-03T01:56:21;16.58;;;8.98;;
24619;SDS011;12763;55.802;37.404;2022-08-03T01:58:49;18.77;;;9.20;;
24619;SDS011;12763;55.802;37.404;2022-08-03T02:01:17;21.88;;;8.82;;
24619;SDS011;12763;55.802;37.404;2022-08-03T02:03:47;21.70;;;9.20;;
24619;SDS011;12763;55.802;37.404;2022-08-03T02:06:14;22.48;;;10.15;;
24619;SDS011;12763;55.802;37.404;2022-08-03T02:08:44;15.55;;;8.98;;
24619;SDS011;12763;55.802;37.404;2022-08-03T02:11:12;18.20;;;9.73;;
24619;SDS011;12763;55.802;37.404;2022-08-03T02:13:38;22.17;;;8.63;;
24619;SDS011;12763;55.802;37.404;2022-08-03T02:16:05;21.63;;;9.15;;
24619;SDS011;12763;55.802;37.404;2022-08-03T02:18:32;18.13;;;9.00;;
24619;SDS011;12763;55.802;37.404;2022-08-03T02:21:00;18.45;;;8.25;;
24619;SDS011;12763;55.802;37.404;2022-08-03T02:23:29;23.17;;;9.07;;
24619;SDS011;12763;55.802;37.404;2022-08-03T02:25:59;25.77;;;9.05;;
24619;SDS011;12763;55.802;37.404;2022-08-03T02:28:39;22.02;;;9.00;;
24619;SDS011;12763;55.802;37.404;2022-08-03T02:31:12;18.05;;;9.27;;
24619;SDS011;12763;55.802;37.404;2022-08-03T02:33:48;19.40;;;10.13;;
24619;SDS011;12763;55.802;37.404;2022-08-03T02:36:20;20.25;;;8.75;;
24619;SDS011;12763;55.802;37.404;2022-08-03T02:38:57;19.13;;;9.23;;
24619;SDS011;12763;55.802;37.404;2022-08-03T02:41:31;14.85;;;8.98;;
24619;SDS011;12763;55.802;37.404;2022-08-03T02:44:02;21.08;;;9.23;;
24619;SDS011;12763;55.802;37.404;2022-08-03T02:46:33;14.77;;;8.75;;
24619;SDS011;12763;55.802;37.404;2022-08-03T02:49:03;13.45;;;8.23;;
24619;SDS011;12763;55.802;37.404;2022-08-03T02:51:30;15.95;;;9.30;;
24619;SDS011;12763;55.802;37.404;2022-08-03T02:53:59;22.13;;;9.65;;
24619;SDS011;12763;55.802;37.404;2022-08-03T02:56:27;18.80;;;9.18;;
24619;SDS011;12763;55.802;37.404;2022-08-03T02:58:55;18.02;;;8.57;;
24619;SDS011;12763;55.802;37.404;2022-08-03T03:01:23;19.10;;;9.85;;
24619;SDS011;12763;55.802;37.404;2022-08-03T03:03:51;22.38;;;9.15;;
24619;SDS011;12763;55.802;37.404;2022-08-03T03:06:19;17.20;;;9.23;;
24619;SDS011;12763;55.802;37.404;2022-08-03T03:08:45;23.30;;;9.35;;
24619;SDS011;12763;55.802;37.404;2022-08-03T03:11:12;16.77;;;10.15;;
24619;SDS011;12763;55.802;37.404;2022-08-03T03:13:41;17.40;;;9.48;;
24619;SDS011;12763;55.802;37.404;2022-08-03T03:16:08;24.25;;;9.50;;
24619;SDS011;12763;55.802;37.404;2022-08-03T03:18:41;17.25;;;9.23;;
24619;SDS011;12763;55.802;37.404;2022-08-03T03:21:09;14.80;;;9.63;;
24619;SDS011;12763;55.802;37.404;2022-08-03T03:23:35;13.95;;;8.75;;
24619;SDS011;12763;55.802;37.404;2022-08-03T03:26:03;13.60;;;10.35;;
24619;SDS011;12763;55.802;37.404;2022-08-03T03:28:30;16.80;;;9.25;;
24619;SDS011;12763;55.802;37.404;2022-08-03T03:31:02;20.88;;;10.52;;
24619;SDS011;12763;55.802;37.404;2022-08-03T03:33:29;21.27;;;9.77;;
24619;SDS011;12763;55.802;37.404;2022-08-03T03:35:55;17.98;;;9.98;;
24619;SDS011;12763;55.802;37.404;2022-08-03T03:38:22;15.27;;;9.40;;
24619;SDS011;12763;55.802;37.404;2022-08-03T03:40:48;18.70;;;10.00;;
24619;SDS011;12763;55.802;37.404;2022-08-03T03:43:14;14.68;;;9.77;;
24619;SDS011;12763;55.802;37.404;2022-08-03T03:45:43;18.52;;;9.60;;
24619;SDS011;12763;55.802;37.404;2022-08-03T03:48:11;18.90;;;10.27;;
24619;SDS011;12763;55.802;37.404;2022-08-03T03:50:37;17.42;;;10.18;;
24619;SDS011;12763;55.802;37.404;2022-08-03T03:53:10;13.70;;;9.20;;
24619;SDS011;12763;55.802;37.404;2022-08-03T03:55:37;18.52;;;11.05;;
24619;SDS011;12763;55.802;37.404;2022-08-03T03:58:04;15.07;;;10.13;;
24619;SDS011;12763;55.802;37.404;2022-08-03T04:00:31;16.60;;;10.55;;
24619;SDS011;12763;55.802;37.404;2022-08-03T04:02:57;22.77;;;11.00;;
24619;SDS011;12763;55.802;37.404;2022-08-03T04:05:23;15.10;;;10.02;;
24619;SDS011;12763;55.802;37.404;2022-08-03T04:08:08;14.07;;;10.38;;
24619;SDS011;12763;55.802;37.404;2022-08-03T04:11:00;19.98;;;11.07;;
24619;SDS011;12763;55.802;37.404;2022-08-03T04:13:37;18.02;;;10.93;;
24619;SDS011;12763;55.802;37.404;2022-08-03T04:16:06;16.08;;;11.13;;
24619;SDS011;12763;55.802;37.404;2022-08-03T04:18:37;22.38;;;10.43;;
24619;SDS011;12763;55.802;37.404;2022-08-03T04:21:05;19.00;;;10.65;;
24619;SDS011;12763;55.802;37.404;2022-08-03T04:23:34;21.20;;;10.85;;
24619;SDS011;12763;55.802;37.404;2022-08-03T04:26:04;18.98;;;10.32;;
24619;SDS011;12763;55.802;37.404;2022-08-03T04:28:34;16.92;;;10.57;;
24619;SDS011;12763;55.802;37.404;2022-08-03T04:31:02;18.77;;;10.07;;
24619;SDS011;12763;55.802;37.404;2022-08-03T04:33:30;22.80;;;11.40;;
24619;SDS011;12763;55.802;37.404;2022-08-03T04:36:00;15.60;;;10.63;;
24619;SDS011;12763;55.802;37.404;2022-08-03T04:38:29;20.73;;;9.52;;
24619;SDS011;12763;55.802;37.404;2022-08-03T04:40:57;11.48;;;9.35;;
24619;SDS011;12763;55.802;37.404;2022-08-03T04:43:25;16.58;;;11.07;;
24619;SDS011;12763;55.802;37.404;2022-08-03T04:45:52;14.63;;;10.57;;
24619;SDS011;12763;55.802;37.404;2022-08-03T04:48:20;14.77;;;10.18;;
24619;SDS011;12763;55.802;37.404;2022-08-03T04:50:46;18.50;;;11.10;;
24619;SDS011;12763;55.802;37.404;2022-08-03T04:53:12;15.00;;;10.15;;
24619;SDS011;12763;55.802;37.404;2022-08-03T04:55:38;19.58;;;9.35;;
24619;SDS011;12763;55.802;37.404;2022-08-03T04:58:04;14.90;;;9.75;;
24619;SDS011;12763;55.802;37.404;2022-08-03T05:00:30;18.45;;;10.45;;
24619;SDS011;12763;55.802;37.404;2022-08-03T05:02:57;14.20;;;10.20;;
24619;SDS011;12763;55.802;37.404;2022-08-03T05:05:23;12.20;;;7.85;;
24619;SDS011;12763;55.802;37.404;2022-08-03T05:07:49;15.27;;;9.25;;
24619;SDS011;12763;55.802;37.404;2022-08-03T05:10:15;38.15;;;11.05;;
24619;SDS011;12763;55.802;37.404;2022-08-03T05:12:42;18.33;;;10.18;;
24619;SDS011;12763;55.802;37.404;2022-08-03T05:15:09;17.90;;;10.55;;
24619;SDS011;12763;55.802;37.404;2022-08-03T05:17:35;22.65;;;10.90;;
24619;SDS011;12763;55.802;37.404;2022-08-03T05:20:01;14.55;;;8.88;;
24619;SDS011;12763;55.802;37.404;2022-08-03T05:22:31;21.08;;;10.68;;
24619;SDS011;12763;55.802;37.404;2022-08-03T05:24:57;15.90;;;9.80;;
24619;SDS011;12763;55.802;37.404;2022-08-03T05:27:23;18.80;;;10.10;;
24619;SDS011;12763;55.802;37.404;2022-08-03T05:29:49;17.83;;;10.27;;
24619;SDS011;12763;55.802;37.404;2022-08-03T05:32:16;17.23;;;8.60;;
24619;SDS011;12763;55.802;37.404;2022-08-03T05:34:43;23.60;;;10.30;;
24619;SDS011;12763;55.802;37.404;2022-08-03T05:37:09;15.57;;;9.27;;
24619;SDS011;12763;55.802;37.404;2022-08-03T05:39:35;16.95;;;8.98;;
24619;SDS011;12763;55.802;37.404;2022-08-03T05:42:02;15.77;;;9.63;;
24619;SDS011;12763;55.802;37.404;2022-08-03T05:44:29;13.40;;;9.82;;
24619;SDS011;12763;55.802;37.404;2022-08-03T05:46:56;15.73;;;10.00;;
24619;SDS011;12763;55.802;37.404;2022-08-03T05:49:22;12.32;;;7.82;;
24619;SDS011;12763;55.802;37.404;2022-08-03T05:51:48;24.35;;;10.27;;
24619;SDS011;12763;55.802;37.404;2022-08-03T05:54:14;16.63;;;9.88;;
24619;SDS011;12763;55.802;37.404;2022-08-03T05:56:40;18.98;;;9.13;;
24619;SDS011;12763;55.802;37.404;2022-08-03T05:59:06;21.88;;;9.88;;
24619;SDS011;12763;55.802;37.404;2022-08-03T06:01:32;22.17;;;10.80;;
24619;SDS011;12763;55.802;37.404;2022-08-03T06:03:58;14.93;;;9.25;;
24619;SDS011;12763;55.802;37.404;2022-08-03T06:06:24;24.63;;;10.50;;
24619;SDS011;12763;55.802;37.404;2022-08-03T06:08:50;19.80;;;10.35;;
24619;SDS011;12763;55.802;37.404;2022-08-03T06:11:16;18.38;;;9.73;;
24619;SDS011;12763;55.802;37.404;2022-08-03T06:13:42;19.95;;;8.27;;
24619;SDS011;12763;55.802;37.404;2022-08-03T06:16:08;19.10;;;9.07;;
24619;SDS011;12763;55.802;37.404;2022-08-03T06:18:35;20.85;;;9.15;;
24619;SDS011;12763;55.802;37.404;2022-08-03T06:21:01;17.15;;;9.93;;
24619;SDS011;12763;55.802;37.404;2022-08-03T06:23:27;19.67;;;10.00;;
24619;SDS011;12763;55.802;37.404;2022-08-03T06:25:53;18.38;;;8.52;;
24619;SDS011;12763;55.802;37.404;2022-08-03T06:28:19;21.80;;;8.93;;
24619;SDS011;12763;55.802;37.404;2022-08-03T06:30:45;12.65;;;7.60;;
24619;SDS011;12763;55.802;37.404;2022-08-03T06:33:12;16.45;;;8.68;;
24619;SDS011;12763;55.802;37.404;2022-08-03T06:35:38;21.52;;;7.78;;
24619;SDS011;12763;55.802;37.404;2022-08-03T06:38:04;12.65;;;7.43;;
24619;SDS011;12763;55.802;37.404;2022-08-03T06:40:30;17.85;;;7.72;;
24619;SDS011;12763;55.802;37.404;2022-08-03T06:43:00;14.98;;;8.48;;
24619;SDS011;12763;55.802;37.404;2022-08-03T06:45:27;15.27;;;7.47;;
24619;SDS011;12763;55.802;37.404;2022-08-03T06:48:00;13.25;;;7.60;;
24619;SDS011;12763;55.802;37.404;2022-08-03T06:50:28;19.05;;;7.32;;
24619;SDS011;12763;55.802;37.404;2022-08-03T06:52:54;10.77;;;6.32;;
24619;SDS011;12763;55.802;37.404;2022-08-03T06:55:20;12.05;;;6.90;;
24619;SDS011;12763;55.802;37.404;2022-08-03T06:57:46;13.93;;;7.15;;
24619;SDS011;12763;55.802;37.404;2022-08-03T07:00:12;11.25;;;6.43;;
24619;SDS011;12763;55.802;37.404;2022-08-03T07:02:39;12.52;;;6.40;;
24619;SDS011;12763;55.802;37.404;2022-08-03T07:05:05;12.60;;;6.97;;
24619;SDS011;12763;55.802;37.404;2022-08-03T07:07:32;16.20;;;6.93;;
24619;SDS011;12763;55.802;37.404;2022-08-03T07:09:58;9.50;;;5.55;;
24619;SDS011;12763;55.802;37.404;2022-08-03T07:12:27;8.27;;;5.97;;
24619;SDS011;12763;55.802;37.404;2022-08-03T07:14:54;9.23;;;5.45;;
24619;SDS011;12763;55.802;37.404;2022-08-03T07:17:21;12.48;;;5.25;;
24619;SDS011;12763;55.802;37.404;2022-08-03T07:19:47;10.60;;;5.15;;
24619;SDS011;12763;55.802;37.404;2022-08-03T07:22:13;11.45;;;5.53;;
24619;SDS011;12763;55.802;37.404;2022-08-03T07:24:39;8.65;;;5.05;;
24619;SDS011;12763;55.802;37.404;2022-08-03T07:27:06;7.50;;;5.20;;
24619;SDS011;12763;55.802;37.404;2022-08-03T07:29:33;10.80;;;5.10;;
24619;SDS011;12763;55.802;37.404;2022-08-03T07:31:59;10.48;;;5.22;;
24619;SDS011;12763;55.802;37.404;2022-08-03T07:34:26;7.13;;;5.05;;
24619;SDS011;12763;55.802;37.404;2022-08-03T07:36:52;14.32;;;5.07;;
24619;SDS011;12763;55.802;37.404;2022-08-03T07:39:18;9.18;;;5.40;;
24619;SDS011;12763;55.802;37.404;2022-08-03T07:41:44;9.48;;;4.72;;
24619;SDS011;12763;55.802;37.404;2022-08-03T07:44:10;6.47;;;4.95;;
24619;SDS011;12763;55.802;37.404;2022-08-03T07:46:36;9.25;;;4.38;;
24619;SDS011;12763;55.802;37.404;2022-08-03T07:49:02;8.02;;;4.82;;
24619;SDS011;12763;55.802;37.404;2022-08-03T07:51:28;8.77;;;4.07;;
24619;SDS011;12763;55.802;37.404;2022-08-03T07:53:54;6.35;;;3.90;;
24619;SDS011;12763;55.802;37.404;2022-08-03T07:56:22;13.25;;;4.75;;
24619;SDS011;12763;55.802;37.404;2022-08-03T07:58:50;11.35;;;4.20;;
24619;SDS011;12763;55.802;37.404;2022-08-03T08:01:16;7.30;;;4.03;;
24619;SDS011;12763;55.802;37.404;2022-08-03T08:03:46;8.45;;;4.75;;
24619;SDS011;12763;55.802;37.404;2022-08-03T08:06:13;7.28;;;4.22;;
24619;SDS011;12763;55.802;37.404;2022-08-03T08:08:40;4.45;;;4.03;;
24619;SDS011;12763;55.802;37.404;2022-08-03T08:11:06;6.85;;;4.85;;
24619;SDS011;12763;55.802;37.404;2022-08-03T08:13:32;12.35;;;4.30;;
24619;SDS011;12763;55.802;37.404;2022-08-03T08:15:58;6.88;;;4.25;;
24619;SDS011;12763;55.802;37.404;2022-08-03T08:18:25;5.10;;;3.80;;
24619;SDS011;12763;55.802;37.404;2022-08-03T08:20:54;7.75;;;4.25;;
24619;SDS011;12763;55.802;37.404;2022-08-03T08:23:20;7.55;;;4.40;;
24619;SDS011;12763;55.802;37.404;2022-08-03T08:25:49;12.07;;;4.40;;
24619;SDS011;12763;55.802;37.404;2022-08-03T08:28:16;6.10;;;4.25;;
24619;SDS011;12763;55.802;37.404;2022-08-03T08:30:43;5.38;;;3.88;;
24619;SDS011;12763;55.802;37.404;2022-08-03T08:33:09;8.27;;;4.07;;
24619;SDS011;12763;55.802;37.404;2022-08-03T08:35:36;7.80;;;4.80;;
24619;SDS011;12763;55.802;37.404;2022-08-03T08:38:02;6.15;;;4.22;;
24619;SDS011;12763;55.802;37.404;2022-08-03T08:40:28;6.47;;;4.15;;
24619;SDS011;12763;55.802;37.404;2022-08-03T08:42:54;9.73;;;3.97;;
24619;SDS011;12763;55.802;37.404;2022-08-03T08:45:20;8.88;;;4.13;;
24619;SDS011;12763;55.802;37.404;2022-08-03T08:47:47;4.15;;;3.58;;
24619;SDS011;12763;55.802;37.404;2022-08-03T08:50:17;5.35;;;4.10;;
24619;SDS011;12763;55.802;37.404;2022-08-03T08:52:45;9.15;;;4.35;;
24619;SDS011;12763;55.802;37.404;2022-08-03T08:55:14;6.30;;;4.10;;
24619;SDS011;12763;55.802;37.404;2022-08-03T08:57:48;5.63;;;3.80;;
24619;SDS011;12763;55.802;37.404;2022-08-03T09:00:17;7.95;;;4.30;;
24619;SDS011;12763;55.802;37.404;2022-08-03T09:02:44;4.68;;;4.25;;
24619;SDS011;12763;55.802;37.404;2022-08-03T09:05:11;7.85;;;4.25;;
24619;SDS011;12763;55.802;37.404;2022-08-03T09:07:44;7.60;;;4.20;;
24619;SDS011;12763;55.802;37.404;2022-08-03T09:10:11;10.57;;;4.40;;
24619;SDS011;12763;55.802;37.404;2022-08-03T09:12:49;8.05;;;4.20;;
24619;SDS011;12763;55.802;37.404;2022-08-03T09:17:47;7.85;;;4.70;;
24619;SDS011;12763;55.802;37.404;2022-08-03T09:20:13;7.65;;;4.70;;
24619;SDS011;12763;55.802;37.404;2022-08-03T09:22:52;8.38;;;5.55;;
24619;SDS011;12763;55.802;37.404;2022-08-03T09:25:34;8.43;;;4.47;;
24619;SDS011;12763;55.802;37.404;2022-08-03T09:28:22;7.35;;;4.25;;
24619;SDS011;12763;55.802;37.404;2022-08-03T09:30:58;10.95;;;5.50;;
24619;SDS011;12763;55.802;37.404;2022-08-03T09:33:24;8.70;;;4.68;;
24619;SDS011;12763;55.802;37.404;2022-08-03T09:35:50;10.57;;;5.40;;
24619;SDS011;12763;55.802;37.404;2022-08-03T09:38:17;10.82;;;5.32;;
24619;SDS011;12763;55.802;37.404;2022-08-03T09:40:54;5.45;;;4.25;;
24619;SDS011;12763;55.802;37.404;2022-08-03T09:43:21;8.93;;;5.47;;
24619;SDS011;12763;55.802;37.404;2022-08-03T09:45:48;15.23;;;5.53;;
24619;SDS011;12763;55.802;37.404;2022-08-03T09:48:27;9.30;;;4.53;;
24619;SDS011;12763;55.802;37.404;2022-08-03T09:50:55;8.13;;;4.80;;
24619;SDS011;12763;55.802;37.404;2022-08-03T09:53:22;7.88;;;5.07;;
24619;SDS011;12763;55.802;37.404;2022-08-03T09:55:55;10.77;;;4.30;;
24619;SDS011;12763;55.802;37.404;2022-08-03T09:58:24;8.73;;;4.28;;
24619;SDS011;12763;55.802;37.404;2022-08-03T10:00:58;6.30;;;4.45;;
24619;SDS011;12763;55.802;37.404;2022-08-03T10:03:26;6.97;;;4.63;;
24619;SDS011;12763;55.802;37.404;2022-08-03T10:05:54;9.45;;;5.28;;
24619;SDS011;12763;55.802;37.404;2022-08-03T10:08:20;12.50;;;5.20;;
24619;SDS011;12763;55.802;37.404;2022-08-03T10:10:48;12.15;;;4.65;;
24619;SDS011;12763;55.802;37.404;2022-08-03T10:13:16;9.25;;;5.47;;
24619;SDS011;12763;55.802;37.404;2022-08-03T10:15:43;7.38;;;4.32;;
24619;SDS011;12763;55.802;37.404;2022-08-03T10:18:10;10.35;;;5.43;;
24619;SDS011;12763;55.802;37.404;2022-08-03T10:20:37;8.25;;;4.90;;
24619;SDS011;12763;55.802;37.404;2022-08-03T10:23:08;12.25;;;4.90;;
24619;SDS011;12763;55.802;37.404;2022-08-03T10:25:36;10.45;;;5.80;;
24619;SDS011;12763;55.802;37.404;2022-08-03T10:28:03;10.00;;;4.57;;
24619;SDS011;12763;55.802;37.404;2022-08-03T10:30:31;11.15;;;4.95;;
24619;SDS011;12763;55.802;37.404;2022-08-03T10:35:23;8.23;;;4.50;;
24619;SDS011;12763;55.802;37.404;2022-08-03T10:37:54;11.48;;;4.95;;
24619;SDS011;12763;55.802;37.404;2022-08-03T10:40:26;10.33;;;5.03;;
24619;SDS011;12763;55.802;37.404;2022-08-03T10:42:54;7.03;;;4.53;;
24619;SDS011;12763;55.802;37.404;2022-08-03T10:45:24;9.13;;;4.38;;
24619;SDS011;12763;55.802;37.404;2022-08-03T10:47:52;8.85;;;4.68;;
24619;SDS011;12763;55.802;37.404;2022-08-03T10:50:21;7.95;;;4.82;;
24619;SDS011;12763;55.802;37.404;2022-08-03T10:55:38;13.93;;;5.15;;
24619;SDS011;12763;55.802;37.404;2022-08-03T11:01:05;8.13;;;4.45;;
24619;SDS011;12763;55.802;37.404;2022-08-03T11:03:34;7.70;;;5.03;;
24619;SDS011;12763;55.802;37.404;2022-08-03T11:06:22;8.43;;;4.22;;
24619;SDS011;12763;55.802;37.404;2022-08-03T11:11:34;9.25;;;4.25;;
24619;SDS011;12763;55.802;37.404;2022-08-03T11:16:33;8.95;;;4.68;;
24619;SDS011;12763;55.802;37.404;2022-08-03T11:19:04;7.68;;;4.53;;
24619;SDS011;12763;55.802;37.404;2022-08-03T11:35:13;8.43;;;4.15;;
24619;SDS011;12763;55.802;37.404;2022-08-03T11:45:55;9.50;;;4.88;;
24619;SDS011;12763;55.802;37.404;2022-08-03T11:48:22;10.13;;;4.53;;
24619;SDS011;12763;55.802;37.404;2022-08-03T11:50:51;13.98;;;4.82;;
24619;SDS011;12763;55.802;37.404;2022-08-03T11:53:17;7.72;;;4.68;;
24619;SDS011;12763;55.802;37.404;2022-08-03T11:55:44;8.52;;;4.90;;
24619;SDS011;12763;55.802;37.404;2022-08-03T11:58:20;7.70;;;4.05;;
24619;SDS011;12763;55.802;37.404;2022-08-03T12:00:47;11.05;;;4.15;;
24619;SDS011;12763;55.802;37.404;2022-08-03T12:03:14;7.50;;;4.38;;
24619;SDS011;12763;55.802;37.404;2022-08-03T12:05:43;9.55;;;4.90;;
24619;SDS011;12763;55.802;37.404;2022-08-03T12:10:51;6.25;;;4.10;;
24619;SDS011;12763;55.802;37.404;2022-08-03T12:13:17;7.40;;;4.60;;
24619;SDS011;12763;55.802;37.404;2022-08-03T12:15:49;5.18;;;4.20;;
24619;SDS011;12763;55.802;37.404;2022-08-03T12:18:17;7.82;;;4.53;;
24619;SDS011;12763;55.802;37.404;2022-08-03T12:20:45;7.15;;;4.30;;
24619;SDS011;12763;55.802;37.404;2022-08-03T12:23:11;6.15;;;3.83;;
24619;SDS011;12763;55.802;37.404;2022-08-03T12:25:38;7.05;;;4.53;;
24619;SDS011;12763;55.802;37.404;2022-08-03T12:30:44;6.43;;;4.13;;
24619;SDS011;12763;55.802;37.404;2022-08-03T12:33:53;13.00;;;4.22;;
24619;SDS011;12763;55.802;37.404;2022-08-03T12:36:18;12.90;;;4.63;;
24619;SDS011;12763;55.802;37.404;2022-08-03T12:38:44;4.47;;;3.90;;
24619;SDS011;12763;55.802;37.404;2022-08-03T12:41:27;7.03;;;4.05;;
24619;SDS011;12763;55.802;37.404;2022-08-03T12:44:00;8.60;;;4.63;;
24619;SDS011;12763;55.802;37.404;2022-08-03T12:46:29;6.65;;;4.55;;
24619;SDS011;12763;55.802;37.404;2022-08-03T12:49:04;9.40;;;4.45;;
24619;SDS011;12763;55.802;37.404;2022-08-03T12:51:54;6.65;;;4.40;;
24619;SDS011;12763;55.802;37.404;2022-08-03T12:54:23;6.95;;;4.25;;
24619;SDS011;12763;55.802;37.404;2022-08-03T12:59:40;5.40;;;4.07;;
24619;SDS011;12763;55.802;37.404;2022-08-03T13:02:21;12.25;;;4.10;;
24619;SDS011;12763;55.802;37.404;2022-08-03T13:04:49;5.78;;;4.30;;
24619;SDS011;12763;55.802;37.404;2022-08-03T13:07:16;7.80;;;4.63;;
24619;SDS011;12763;55.802;37.404;2022-08-03T13:09:51;8.20;;;4.72;;
24619;SDS011;12763;55.802;37.404;2022-08-03T13:12:20;9.40;;;4.00;;
24619;SDS011;12763;55.802;37.404;2022-08-03T13:14:51;7.75;;;4.22;;
24619;SDS011;12763;55.802;37.404;2022-08-03T13:17:19;5.75;;;3.90;;
24619;SDS011;12763;55.802;37.404;2022-08-03T13:19:46;9.52;;;5.03;;
24619;SDS011;12763;55.802;37.404;2022-08-03T13:22:17;8.38;;;4.22;;
24619;SDS011;12763;55.802;37.404;2022-08-03T13:24:49;9.75;;;4.50;;
24619;SDS011;12763;55.802;37.404;2022-08-03T13:27:16;11.88;;;4.60;;
24619;SDS011;12763;55.802;37.404;2022-08-03T13:29:42;8.40;;;4.22;;
24619;SDS011;12763;55.802;37.404;2022-08-03T13:32:08;5.40;;;3.88;;
24619;SDS011;12763;55.802;37.404;2022-08-03T13:34:35;5.22;;;4.03;;
24619;SDS011;12763;55.802;37.404;2022-08-03T13:37:01;10.30;;;4.60;;
24619;SDS011;12763;55.802;37.404;2022-08-03T13:39:27;11.65;;;4.53;;
24619;SDS011;12763;55.802;37.404;2022-08-03T13:41:53;13.60;;;4.85;;
24619;SDS011;12763;55.802;37.404;2022-08-03T13:44:19;6.20;;;4.60;;
24619;SDS011;12763;55.802;37.404;2022-08-03T13:46:45;6.47;;;4.57;;
24619;SDS011;12763;55.802;37.404;2022-08-03T13:49:11;7.28;;;4.65;;
24619;SDS011;12763;55.802;37.404;2022-08-03T13:51:38;12.15;;;4.28;;
24619;SDS011;12763;55.802;37.404;2022-08-03T13:54:04;7.20;;;4.18;;
24619;SDS011;12763;55.802;37.404;2022-08-03T13:56:30;8.95;;;4.25;;
24619;SDS011;12763;55.802;37.404;2022-08-03T13:58:56;6.90;;;4.50;;
24619;SDS011;12763;55.802;37.404;2022-08-03T14:01:22;6.20;;;4.00;;
24619;SDS011;12763;55.802;37.404;2022-08-03T14:03:49;9.43;;;4.93;;
24619;SDS011;12763;55.802;37.404;2022-08-03T14:06:18;8.25;;;4.18;;
24619;SDS011;12763;55.802;37.404;2022-08-03T14:08:45;6.78;;;4.25;;
24619;SDS011;12763;55.802;37.404;2022-08-03T14:11:12;7.07;;;4.43;;
24619;SDS011;12763;55.802;37.404;2022-08-03T14:13:39;9.52;;;4.75;;
24619;SDS011;12763;55.802;37.404;2022-08-03T14:16:05;10.23;;;4.75;;
24619;SDS011;12763;55.802;37.404;2022-08-03T14:18:31;7.20;;;4.68;;
24619;SDS011;12763;55.802;37.404;2022-08-03T14:20:57;6.15;;;4.60;;
24619;SDS011;12763;55.802;37.404;2022-08-03T14:23:24;6.40;;;4.53;;
24619;SDS011;12763;55.802;37.404;2022-08-03T14:25:50;10.68;;;5.05;;
24619;SDS011;12763;55.802;37.404;2022-08-03T14:28:16;8.48;;;4.80;;
24619;SDS011;12763;55.802;37.404;2022-08-03T14:30:43;7.30;;;4.78;;
24619;SDS011;12763;55.802;37.404;2022-08-03T14:33:09;7.55;;;4.57;;
24619;SDS011;12763;55.802;37.404;2022-08-03T14:35:34;8.38;;;4.72;;
24619;SDS011;12763;55.802;37.404;2022-08-03T14:38:00;8.68;;;5.15;;
24619;SDS011;12763;55.802;37.404;2022-08-03T14:40:26;17.42;;;6.10;;
24619;SDS011;12763;55.802;37.404;2022-08-03T14:42:52;8.27;;;4.95;;
24619;SDS011;12763;55.802;37.404;2022-08-03T14:45:18;11.25;;;5.38;;
24619;SDS011;12763;55.802;37.404;2022-08-03T14:47:43;12.00;;;5.85;;
24619;SDS011;12763;55.802;37.404;2022-08-03T14:50:09;9.07;;;4.68;;
24619;SDS011;12763;55.802;37.404;2022-08-03T14:52:35;11.40;;;5.13;;
24619;SDS011;12763;55.802;37.404;2022-08-03T14:55:01;14.77;;;4.95;;
24619;SDS011;12763;55.802;37.404;2022-08-03T14:57:28;9.13;;;4.93;;
24619;SDS011;12763;55.802;37.404;2022-08-03T14:59:54;7.32;;;4.82;;
24619;SDS011;12763;55.802;37.404;2022-08-03T15:02:20;11.43;;;5.15;;
24619;SDS011;12763;55.802;37.404;2022-08-03T15:04:46;7.75;;;4.93;;
24619;SDS011;12763;55.802;37.404;2022-08-03T15:07:12;8.02;;;5.10;;
24619;SDS011;12763;55.802;37.404;2022-08-03T15:09:38;10.48;;;5.25;;
24619;SDS011;12763;55.802;37.404;2022-08-03T15:12:04;16.35;;;5.97;;
24619;SDS011;12763;55.802;37.404;2022-08-03T15:14:31;11.20;;;5.57;;
24619;SDS011;12763;55.802;37.404;2022-08-03T15:16:57;17.15;;;5.88;;
24619;SDS011;12763;55.802;37.404;2022-08-03T15:19:23;13.93;;;6.10;;
24619;SDS011;12763;55.802;37.404;2022-08-03T15:21:49;15.48;;;5.22;;
24619;SDS011;12763;55.802;37.404;2022-08-03T15:24:15;14.88;;;5.75;;
24619;SDS011;12763;55.802;37.404;2022-08-03T15:26:41;12.70;;;5.60;;